KMDZ

Taylor County Airport

Medford, Wisconsin, USA
METAR KMDZ 241955Z AUTO 10012G15KT 10SM OVC095 00/M05 A2992 RMK AO2 T10011050
Observed Flight Rules
Feb-24 @ 19:55 UTC (17 minutes ago) Visual Flight Rules
Wind Visibility Clouds
100° at 12 knots
 Gusting to 15 knots
10 miles
  • Overcast at 9,500' AGL
Temperatures Readings
Current -0°C / 32°F
Dewpoint -5°C / 23°F
Humidity 69%
Altimeter 29.92" Hg
Pressure 1013 hPa
Elevation 448
METAR KMDZ 241955Z AUTO 10012G15KT 10SM OVC095 00/M05 A2992 RMK AO2 T10011050
Observed Flight Rules
Feb-24 @ 19:55 UTC
(17 minutes ago)
VFR
Wind Visibility
100° at 12 knots
 Gusting to 15 knots
10 miles
Clouds
  • Overcast at 9,500' AGL
Temperature Dewpoint
-0°C / 32°F -5°C / 23°F
Humidity Altimeter Pressure
69% 29.92" Hg 1013 hPa